sensor_id;sensor_type;location;lat;lon;timestamp;P1;durP1;ratioP1;P2;durP2;ratioP2
65189;SDS011;51777;53.570;9.984;2022-08-19T00:01:50;17.55;;;7.30;;
65189;SDS011;51777;53.570;9.984;2022-08-19T00:04:18;11.23;;;7.20;;
65189;SDS011;51777;53.570;9.984;2022-08-19T00:06:45;11.45;;;6.80;;
65189;SDS011;51777;53.570;9.984;2022-08-19T00:09:14;11.25;;;6.78;;
65189;SDS011;51777;53.570;9.984;2022-08-19T00:11:41;11.07;;;7.03;;
65189;SDS011;51777;53.570;9.984;2022-08-19T00:14:09;16.05;;;7.90;;
65189;SDS011;51777;53.570;9.984;2022-08-19T00:16:39;15.40;;;7.45;;
65189;SDS011;51777;53.570;9.984;2022-08-19T00:19:06;15.75;;;8.35;;
65189;SDS011;51777;53.570;9.984;2022-08-19T00:21:31;17.45;;;9.65;;
65189;SDS011;51777;53.570;9.984;2022-08-19T00:23:57;20.95;;;10.20;;
65189;SDS011;51777;53.570;9.984;2022-08-19T00:26:23;16.08;;;10.38;;
65189;SDS011;51777;53.570;9.984;2022-08-19T00:28:50;22.00;;;12.85;;
65189;SDS011;51777;53.570;9.984;2022-08-19T00:31:15;21.17;;;12.27;;
65189;SDS011;51777;53.570;9.984;2022-08-19T00:33:41;20.77;;;12.50;;
65189;SDS011;51777;53.570;9.984;2022-08-19T00:36:07;25.73;;;13.52;;
65189;SDS011;51777;53.570;9.984;2022-08-19T00:38:34;21.42;;;13.75;;
65189;SDS011;51777;53.570;9.984;2022-08-19T00:41:01;20.98;;;13.02;;
65189;SDS011;51777;53.570;9.984;2022-08-19T00:43:27;27.08;;;14.55;;
65189;SDS011;51777;53.570;9.984;2022-08-19T00:45:52;23.23;;;13.38;;
65189;SDS011;51777;53.570;9.984;2022-08-19T00:48:19;24.85;;;14.07;;
65189;SDS011;51777;53.570;9.984;2022-08-19T00:50:45;29.70;;;14.68;;
65189;SDS011;51777;53.570;9.984;2022-08-19T00:53:14;27.20;;;16.05;;
65189;SDS011;51777;53.570;9.984;2022-08-19T00:55:47;32.10;;;16.10;;
65189;SDS011;51777;53.570;9.984;2022-08-19T00:58:16;28.55;;;16.35;;
65189;SDS011;51777;53.570;9.984;2022-08-19T01:00:44;25.35;;;15.05;;
65189;SDS011;51777;53.570;9.984;2022-08-19T01:03:12;32.25;;;16.15;;
65189;SDS011;51777;53.570;9.984;2022-08-19T01:05:41;32.95;;;17.25;;
65189;SDS011;51777;53.570;9.984;2022-08-19T01:08:08;32.35;;;16.30;;
65189;SDS011;51777;53.570;9.984;2022-08-19T01:10:42;31.02;;;15.52;;
65189;SDS011;51777;53.570;9.984;2022-08-19T01:13:10;26.40;;;15.32;;
65189;SDS011;51777;53.570;9.984;2022-08-19T01:15:41;28.58;;;15.38;;
65189;SDS011;51777;53.570;9.984;2022-08-19T01:18:12;25.73;;;14.23;;
65189;SDS011;51777;53.570;9.984;2022-08-19T01:20:39;23.55;;;14.45;;
65189;SDS011;51777;53.570;9.984;2022-08-19T01:23:06;28.60;;;14.85;;
65189;SDS011;51777;53.570;9.984;2022-08-19T01:25:36;26.02;;;13.48;;
65189;SDS011;51777;53.570;9.984;2022-08-19T01:28:08;25.88;;;13.88;;
65189;SDS011;51777;53.570;9.984;2022-08-19T01:30:40;22.98;;;12.57;;
65189;SDS011;51777;53.570;9.984;2022-08-19T01:33:06;24.23;;;12.63;;
65189;SDS011;51777;53.570;9.984;2022-08-19T01:35:32;22.70;;;12.30;;
65189;SDS011;51777;53.570;9.984;2022-08-19T01:37:59;25.88;;;12.20;;
65189;SDS011;51777;53.570;9.984;2022-08-19T01:40:27;23.67;;;11.25;;
65189;SDS011;51777;53.570;9.984;2022-08-19T01:42:56;22.73;;;12.05;;
65189;SDS011;51777;53.570;9.984;2022-08-19T01:45:23;20.80;;;11.45;;
65189;SDS011;51777;53.570;9.984;2022-08-19T01:47:50;21.13;;;11.57;;
65189;SDS011;51777;53.570;9.984;2022-08-19T01:50:16;24.77;;;12.07;;
65189;SDS011;51777;53.570;9.984;2022-08-19T01:52:42;19.77;;;11.70;;
65189;SDS011;51777;53.570;9.984;2022-08-19T01:55:10;22.27;;;12.10;;
65189;SDS011;51777;53.570;9.984;2022-08-19T01:57:38;22.27;;;12.80;;
65189;SDS011;51777;53.570;9.984;2022-08-19T02:00:07;23.25;;;13.77;;
65189;SDS011;51777;53.570;9.984;2022-08-19T02:02:35;24.58;;;12.80;;
65189;SDS011;51777;53.570;9.984;2022-08-19T02:05:01;24.58;;;13.65;;
65189;SDS011;51777;53.570;9.984;2022-08-19T02:07:26;24.58;;;12.65;;
65189;SDS011;51777;53.570;9.984;2022-08-19T02:09:53;26.92;;;13.98;;
65189;SDS011;51777;53.570;9.984;2022-08-19T02:12:20;26.52;;;13.55;;
65189;SDS011;51777;53.570;9.984;2022-08-19T02:14:45;27.60;;;14.60;;
65189;SDS011;51777;53.570;9.984;2022-08-19T02:17:11;25.55;;;13.20;;
65189;SDS011;51777;53.570;9.984;2022-08-19T02:19:37;25.23;;;13.30;;
65189;SDS011;51777;53.570;9.984;2022-08-19T02:22:02;25.73;;;12.68;;
65189;SDS011;51777;53.570;9.984;2022-08-19T02:24:28;25.15;;;13.50;;
65189;SDS011;51777;53.570;9.984;2022-08-19T02:26:54;28.00;;;13.93;;
65189;SDS011;51777;53.570;9.984;2022-08-19T02:29:19;22.23;;;12.73;;
65189;SDS011;51777;53.570;9.984;2022-08-19T02:31:45;24.55;;;12.70;;
65189;SDS011;51777;53.570;9.984;2022-08-19T02:34:10;28.15;;;13.60;;
65189;SDS011;51777;53.570;9.984;2022-08-19T02:36:36;27.02;;;13.35;;
65189;SDS011;51777;53.570;9.984;2022-08-19T02:39:01;21.80;;;12.88;;
65189;SDS011;51777;53.570;9.984;2022-08-19T02:41:28;28.98;;;13.60;;
65189;SDS011;51777;53.570;9.984;2022-08-19T02:43:56;27.50;;;13.45;;
65189;SDS011;51777;53.570;9.984;2022-08-19T02:46:24;26.55;;;13.52;;
65189;SDS011;51777;53.570;9.984;2022-08-19T02:48:52;28.88;;;13.25;;
65189;SDS011;51777;53.570;9.984;2022-08-19T02:51:21;28.60;;;13.70;;
65189;SDS011;51777;53.570;9.984;2022-08-19T02:53:50;31.15;;;14.30;;
65189;SDS011;51777;53.570;9.984;2022-08-19T02:56:16;32.08;;;13.65;;
65189;SDS011;51777;53.570;9.984;2022-08-19T02:58:42;31.90;;;14.77;;
65189;SDS011;51777;53.570;9.984;2022-08-19T03:01:08;34.65;;;14.98;;
65189;SDS011;51777;53.570;9.984;2022-08-19T03:03:35;29.88;;;15.00;;
65189;SDS011;51777;53.570;9.984;2022-08-19T03:06:12;40.42;;;16.50;;
65189;SDS011;51777;53.570;9.984;2022-08-19T03:08:39;40.92;;;16.88;;
65189;SDS011;51777;53.570;9.984;2022-08-19T03:11:12;34.90;;;16.42;;
65189;SDS011;51777;53.570;9.984;2022-08-19T03:13:39;46.50;;;17.70;;
65189;SDS011;51777;53.570;9.984;2022-08-19T03:16:04;51.92;;;17.98;;
65189;SDS011;51777;53.570;9.984;2022-08-19T03:18:30;51.92;;;18.60;;
65189;SDS011;51777;53.570;9.984;2022-08-19T03:20:56;52.90;;;19.92;;
65189;SDS011;51777;53.570;9.984;2022-08-19T03:23:22;51.35;;;19.88;;
65189;SDS011;51777;53.570;9.984;2022-08-19T03:25:48;53.50;;;19.00;;
65189;SDS011;51777;53.570;9.984;2022-08-19T03:28:15;43.92;;;17.75;;
65189;SDS011;51777;53.570;9.984;2022-08-19T03:30:42;48.88;;;19.42;;
65189;SDS011;51777;53.570;9.984;2022-08-19T03:33:21;50.03;;;19.27;;
65189;SDS011;51777;53.570;9.984;2022-08-19T03:35:46;47.20;;;18.95;;
65189;SDS011;51777;53.570;9.984;2022-08-19T03:38:12;46.22;;;17.58;;
65189;SDS011;51777;53.570;9.984;2022-08-19T03:40:37;37.55;;;15.50;;
65189;SDS011;51777;53.570;9.984;2022-08-19T03:43:03;38.28;;;15.63;;
65189;SDS011;51777;53.570;9.984;2022-08-19T03:45:28;37.05;;;15.05;;
65189;SDS011;51777;53.570;9.984;2022-08-19T03:47:54;35.55;;;14.75;;
65189;SDS011;51777;53.570;9.984;2022-08-19T03:50:20;34.63;;;13.85;;
65189;SDS011;51777;53.570;9.984;2022-08-19T03:52:49;38.90;;;15.55;;
65189;SDS011;51777;53.570;9.984;2022-08-19T03:55:15;38.63;;;14.50;;
65189;SDS011;51777;53.570;9.984;2022-08-19T03:57:41;34.72;;;14.82;;
65189;SDS011;51777;53.570;9.984;2022-08-19T04:00:07;34.55;;;13.75;;
65189;SDS011;51777;53.570;9.984;2022-08-19T04:02:33;35.70;;;13.90;;
65189;SDS011;51777;53.570;9.984;2022-08-19T04:04:58;33.53;;;14.13;;
65189;SDS011;51777;53.570;9.984;2022-08-19T04:07:23;33.97;;;14.63;;
65189;SDS011;51777;53.570;9.984;2022-08-19T04:09:49;41.88;;;14.45;;
65189;SDS011;51777;53.570;9.984;2022-08-19T04:12:16;41.35;;;15.68;;
65189;SDS011;51777;53.570;9.984;2022-08-19T04:14:45;43.50;;;15.95;;
65189;SDS011;51777;53.570;9.984;2022-08-19T04:17:11;42.75;;;16.65;;
65189;SDS011;51777;53.570;9.984;2022-08-19T04:19:38;44.92;;;16.10;;
65189;SDS011;51777;53.570;9.984;2022-08-19T04:22:04;45.15;;;17.38;;
65189;SDS011;51777;53.570;9.984;2022-08-19T04:24:30;47.17;;;17.65;;
65189;SDS011;51777;53.570;9.984;2022-08-19T04:26:55;40.33;;;15.98;;
65189;SDS011;51777;53.570;9.984;2022-08-19T04:29:22;48.80;;;18.10;;
65189;SDS011;51777;53.570;9.984;2022-08-19T04:31:51;57.92;;;19.10;;
65189;SDS011;51777;53.570;9.984;2022-08-19T04:34:19;50.95;;;18.00;;
65189;SDS011;51777;53.570;9.984;2022-08-19T04:36:47;55.45;;;19.35;;
65189;SDS011;51777;53.570;9.984;2022-08-19T04:39:16;48.08;;;18.52;;
65189;SDS011;51777;53.570;9.984;2022-08-19T04:41:44;46.30;;;18.60;;
65189;SDS011;51777;53.570;9.984;2022-08-19T04:44:30;47.40;;;18.95;;
65189;SDS011;51777;53.570;9.984;2022-08-19T04:46:56;46.60;;;19.33;;
65189;SDS011;51777;53.570;9.984;2022-08-19T04:49:22;45.72;;;19.48;;
65189;SDS011;51777;53.570;9.984;2022-08-19T04:51:48;45.78;;;19.40;;
65189;SDS011;51777;53.570;9.984;2022-08-19T04:54:18;51.83;;;19.77;;
65189;SDS011;51777;53.570;9.984;2022-08-19T04:56:47;42.38;;;19.58;;
65189;SDS011;51777;53.570;9.984;2022-08-19T04:59:17;45.22;;;18.42;;
65189;SDS011;51777;53.570;9.984;2022-08-19T05:01:45;44.22;;;20.58;;
65189;SDS011;51777;53.570;9.984;2022-08-19T05:04:14;49.90;;;19.73;;
65189;SDS011;51777;53.570;9.984;2022-08-19T05:06:42;41.67;;;18.58;;
65189;SDS011;51777;53.570;9.984;2022-08-19T05:09:08;36.97;;;17.52;;
65189;SDS011;51777;53.570;9.984;2022-08-19T05:11:35;30.23;;;15.75;;
65189;SDS011;51777;53.570;9.984;2022-08-19T05:14:03;33.72;;;15.73;;
65189;SDS011;51777;53.570;9.984;2022-08-19T05:16:29;40.78;;;15.68;;
65189;SDS011;51777;53.570;9.984;2022-08-19T05:18:54;30.45;;;15.93;;
65189;SDS011;51777;53.570;9.984;2022-08-19T05:21:39;31.58;;;15.13;;
65189;SDS011;51777;53.570;9.984;2022-08-19T05:24:24;31.50;;;15.10;;
65189;SDS011;51777;53.570;9.984;2022-08-19T05:26:51;32.03;;;15.13;;
65189;SDS011;51777;53.570;9.984;2022-08-19T05:29:20;39.88;;;15.25;;
65189;SDS011;51777;53.570;9.984;2022-08-19T05:31:46;37.28;;;15.23;;
65189;SDS011;51777;53.570;9.984;2022-08-19T05:34:14;31.85;;;15.40;;
65189;SDS011;51777;53.570;9.984;2022-08-19T05:36:43;31.80;;;13.88;;
65189;SDS011;51777;53.570;9.984;2022-08-19T05:39:12;33.60;;;14.80;;
65189;SDS011;51777;53.570;9.984;2022-08-19T05:41:43;34.78;;;14.75;;
65189;SDS011;51777;53.570;9.984;2022-08-19T05:44:22;30.98;;;14.27;;
65189;SDS011;51777;53.570;9.984;2022-08-19T05:46:53;37.08;;;14.30;;
65189;SDS011;51777;53.570;9.984;2022-08-19T05:49:19;37.92;;;14.05;;
65189;SDS011;51777;53.570;9.984;2022-08-19T05:51:46;34.63;;;13.05;;
65189;SDS011;51777;53.570;9.984;2022-08-19T05:54:12;27.63;;;13.45;;
65189;SDS011;51777;53.570;9.984;2022-08-19T05:56:39;34.97;;;13.82;;
65189;SDS011;51777;53.570;9.984;2022-08-19T05:59:06;30.27;;;13.65;;
65189;SDS011;51777;53.570;9.984;2022-08-19T06:01:36;33.25;;;13.80;;
65189;SDS011;51777;53.570;9.984;2022-08-19T06:04:03;40.85;;;14.07;;
65189;SDS011;51777;53.570;9.984;2022-08-19T06:06:29;33.13;;;14.63;;
65189;SDS011;51777;53.570;9.984;2022-08-19T06:08:54;31.45;;;14.23;;
65189;SDS011;51777;53.570;9.984;2022-08-19T06:11:39;34.33;;;14.48;;
65189;SDS011;51777;53.570;9.984;2022-08-19T06:14:09;34.22;;;15.05;;
65189;SDS011;51777;53.570;9.984;2022-08-19T06:16:40;36.50;;;15.82;;
65189;SDS011;51777;53.570;9.984;2022-08-19T06:19:08;36.50;;;15.57;;
65189;SDS011;51777;53.570;9.984;2022-08-19T06:21:36;34.67;;;14.88;;
65189;SDS011;51777;53.570;9.984;2022-08-19T06:24:04;39.20;;;17.67;;
65189;SDS011;51777;53.570;9.984;2022-08-19T06:26:32;41.72;;;17.00;;
65189;SDS011;51777;53.570;9.984;2022-08-19T06:28:59;44.55;;;18.33;;
65189;SDS011;51777;53.570;9.984;2022-08-19T06:31:26;49.25;;;17.20;;
65189;SDS011;51777;53.570;9.984;2022-08-19T06:33:54;48.35;;;18.42;;
65189;SDS011;51777;53.570;9.984;2022-08-19T06:36:20;43.72;;;17.00;;
65189;SDS011;51777;53.570;9.984;2022-08-19T06:38:52;36.05;;;16.95;;
65189;SDS011;51777;53.570;9.984;2022-08-19T06:41:17;43.38;;;17.13;;
65189;SDS011;51777;53.570;9.984;2022-08-19T06:43:43;45.90;;;16.95;;
65189;SDS011;51777;53.570;9.984;2022-08-19T06:46:09;47.47;;;16.95;;
65189;SDS011;51777;53.570;9.984;2022-08-19T06:48:40;39.97;;;17.00;;
65189;SDS011;51777;53.570;9.984;2022-08-19T06:51:06;43.40;;;17.98;;
65189;SDS011;51777;53.570;9.984;2022-08-19T06:53:32;38.35;;;18.15;;
65189;SDS011;51777;53.570;9.984;2022-08-19T06:55:57;41.58;;;16.67;;
65189;SDS011;51777;53.570;9.984;2022-08-19T06:58:28;43.28;;;16.40;;
65189;SDS011;51777;53.570;9.984;2022-08-19T07:01:04;38.25;;;15.25;;
65189;SDS011;51777;53.570;9.984;2022-08-19T07:03:33;42.42;;;15.52;;
65189;SDS011;51777;53.570;9.984;2022-08-19T07:06:07;38.15;;;15.35;;
65189;SDS011;51777;53.570;9.984;2022-08-19T07:08:37;37.65;;;15.02;;
65189;SDS011;51777;53.570;9.984;2022-08-19T07:11:09;31.23;;;14.48;;
65189;SDS011;51777;53.570;9.984;2022-08-19T07:13:37;31.05;;;14.13;;
65189;SDS011;51777;53.570;9.984;2022-08-19T07:16:06;29.92;;;13.00;;
65189;SDS011;51777;53.570;9.984;2022-08-19T07:18:34;26.52;;;12.50;;
65189;SDS011;51777;53.570;9.984;2022-08-19T07:21:04;25.52;;;12.18;;
65189;SDS011;51777;53.570;9.984;2022-08-19T07:23:29;31.30;;;12.73;;
65189;SDS011;51777;53.570;9.984;2022-08-19T07:25:55;25.98;;;11.38;;
65189;SDS011;51777;53.570;9.984;2022-08-19T07:28:21;31.73;;;12.52;;
65189;SDS011;51777;53.570;9.984;2022-08-19T07:30:47;24.02;;;10.85;;
65189;SDS011;51777;53.570;9.984;2022-08-19T07:33:14;23.95;;;9.63;;
65189;SDS011;51777;53.570;9.984;2022-08-19T07:35:41;20.27;;;9.77;;
65189;SDS011;51777;53.570;9.984;2022-08-19T07:38:07;20.50;;;9.48;;
65189;SDS011;51777;53.570;9.984;2022-08-19T07:40:32;21.88;;;9.93;;
65189;SDS011;51777;53.570;9.984;2022-08-19T07:42:58;22.38;;;9.52;;
65189;SDS011;51777;53.570;9.984;2022-08-19T07:45:23;26.45;;;9.20;;
65189;SDS011;51777;53.570;9.984;2022-08-19T07:47:48;16.00;;;9.05;;
65189;SDS011;51777;53.570;9.984;2022-08-19T07:50:14;14.63;;;8.10;;
65189;SDS011;51777;53.570;9.984;2022-08-19T07:52:44;16.67;;;8.20;;
65189;SDS011;51777;53.570;9.984;2022-08-19T07:55:11;18.13;;;7.65;;
65189;SDS011;51777;53.570;9.984;2022-08-19T07:57:37;13.43;;;7.15;;
65189;SDS011;51777;53.570;9.984;2022-08-19T08:00:04;15.20;;;6.60;;
65189;SDS011;51777;53.570;9.984;2022-08-19T08:02:31;13.57;;;5.95;;
65189;SDS011;51777;53.570;9.984;2022-08-19T08:04:56;17.70;;;6.88;;
65189;SDS011;51777;53.570;9.984;2022-08-19T08:07:40;12.50;;;6.70;;
65189;SDS011;51777;53.570;9.984;2022-08-19T08:10:24;17.55;;;7.20;;
65189;SDS011;51777;53.570;9.984;2022-08-19T08:12:55;19.33;;;8.05;;
65189;SDS011;51777;53.570;9.984;2022-08-19T08:15:24;18.25;;;8.20;;
65189;SDS011;51777;53.570;9.984;2022-08-19T08:17:49;18.08;;;8.18;;
65189;SDS011;51777;53.570;9.984;2022-08-19T08:20:15;23.05;;;8.02;;
65189;SDS011;51777;53.570;9.984;2022-08-19T08:22:44;23.70;;;8.50;;
65189;SDS011;51777;53.570;9.984;2022-08-19T08:25:37;27.45;;;8.80;;
65189;SDS011;51777;53.570;9.984;2022-08-19T08:28:03;22.55;;;8.00;;
65189;SDS011;51777;53.570;9.984;2022-08-19T08:30:29;18.67;;;7.80;;
65189;SDS011;51777;53.570;9.984;2022-08-19T08:32:57;21.27;;;7.85;;
65189;SDS011;51777;53.570;9.984;2022-08-19T08:35:23;21.00;;;8.80;;
65189;SDS011;51777;53.570;9.984;2022-08-19T08:37:50;19.20;;;8.80;;
65189;SDS011;51777;53.570;9.984;2022-08-19T08:40:20;26.75;;;10.65;;
65189;SDS011;51777;53.570;9.984;2022-08-19T08:45:30;19.90;;;10.10;;
65189;SDS011;51777;53.570;9.984;2022-08-19T08:47:58;24.42;;;9.05;;
65189;SDS011;51777;53.570;9.984;2022-08-19T08:50:31;21.63;;;10.32;;
65189;SDS011;51777;53.570;9.984;2022-08-19T08:55:30;22.30;;;9.82;;
65189;SDS011;51777;53.570;9.984;2022-08-19T08:58:03;25.27;;;10.40;;
65189;SDS011;51777;53.570;9.984;2022-08-19T09:00:32;20.73;;;10.60;;
65189;SDS011;51777;53.570;9.984;2022-08-19T09:03:02;26.40;;;10.65;;
65189;SDS011;51777;53.570;9.984;2022-08-19T09:05:36;26.88;;;11.88;;
65189;SDS011;51777;53.570;9.984;2022-08-19T09:10:55;26.40;;;10.55;;
65189;SDS011;51777;53.570;9.984;2022-08-19T09:16:11;27.95;;;11.95;;
65189;SDS011;51777;53.570;9.984;2022-08-19T09:18:51;34.83;;;11.27;;
65189;SDS011;51777;53.570;9.984;2022-08-19T09:21:19;24.00;;;10.80;;
65189;SDS011;51777;53.570;9.984;2022-08-19T09:23:46;27.25;;;10.90;;
65189;SDS011;51777;53.570;9.984;2022-08-19T09:26:13;24.85;;;10.18;;
65189;SDS011;51777;53.570;9.984;2022-08-19T09:28:41;28.20;;;10.23;;
65189;SDS011;51777;53.570;9.984;2022-08-19T09:31:09;25.67;;;9.85;;
65189;SDS011;51777;53.570;9.984;2022-08-19T09:33:35;26.70;;;10.13;;
65189;SDS011;51777;53.570;9.984;2022-08-19T09:36:05;21.30;;;10.20;;
65189;SDS011;51777;53.570;9.984;2022-08-19T09:38:32;16.42;;;7.90;;
65189;SDS011;51777;53.570;9.984;2022-08-19T09:41:05;17.67;;;8.57;;
65189;SDS011;51777;53.570;9.984;2022-08-19T09:43:37;14.90;;;7.40;;
65189;SDS011;51777;53.570;9.984;2022-08-19T09:46:03;21.67;;;7.72;;
65189;SDS011;51777;53.570;9.984;2022-08-19T09:48:31;22.50;;;9.00;;
65189;SDS011;51777;53.570;9.984;2022-08-19T09:51:06;24.50;;;10.50;;
65189;SDS011;51777;53.570;9.984;2022-08-19T09:53:35;28.33;;;10.35;;
65189;SDS011;51777;53.570;9.984;2022-08-19T09:56:01;18.17;;;10.02;;
65189;SDS011;51777;53.570;9.984;2022-08-19T09:58:27;23.23;;;10.27;;
65189;SDS011;51777;53.570;9.984;2022-08-19T10:00:54;24.63;;;9.77;;
65189;SDS011;51777;53.570;9.984;2022-08-19T10:03:20;24.27;;;9.90;;
65189;SDS011;51777;53.570;9.984;2022-08-19T10:05:46;23.50;;;9.43;;
65189;SDS011;51777;53.570;9.984;2022-08-19T10:08:22;22.45;;;9.60;;
65189;SDS011;51777;53.570;9.984;2022-08-19T10:10:57;21.63;;;9.00;;
65189;SDS011;51777;53.570;9.984;2022-08-19T10:13:25;22.95;;;8.75;;
65189;SDS011;51777;53.570;9.984;2022-08-19T10:15:53;20.10;;;10.23;;
65189;SDS011;51777;53.570;9.984;2022-08-19T10:18:20;23.25;;;9.98;;
65189;SDS011;51777;53.570;9.984;2022-08-19T10:20:48;30.55;;;9.70;;
65189;SDS011;51777;53.570;9.984;2022-08-19T10:23:14;22.58;;;9.85;;
65189;SDS011;51777;53.570;9.984;2022-08-19T10:25:41;22.88;;;10.05;;
65189;SDS011;51777;53.570;9.984;2022-08-19T10:28:07;19.90;;;10.07;;
65189;SDS011;51777;53.570;9.984;2022-08-19T10:30:35;20.02;;;9.98;;
65189;SDS011;51777;53.570;9.984;2022-08-19T10:33:00;22.42;;;11.15;;
65189;SDS011;51777;53.570;9.984;2022-08-19T10:35:26;19.48;;;10.25;;
65189;SDS011;51777;53.570;9.984;2022-08-19T10:37:54;22.23;;;10.82;;
65189;SDS011;51777;53.570;9.984;2022-08-19T10:40:23;22.67;;;10.35;;
65189;SDS011;51777;53.570;9.984;2022-08-19T10:42:49;18.65;;;10.80;;
65189;SDS011;51777;53.570;9.984;2022-08-19T10:45:15;21.00;;;10.20;;
65189;SDS011;51777;53.570;9.984;2022-08-19T10:47:41;22.67;;;10.45;;
65189;SDS011;51777;53.570;9.984;2022-08-19T10:50:07;17.30;;;10.80;;
65189;SDS011;51777;53.570;9.984;2022-08-19T10:52:51;24.85;;;11.63;;
65189;SDS011;51777;53.570;9.984;2022-08-19T10:55:20;22.83;;;10.88;;
65189;SDS011;51777;53.570;9.984;2022-08-19T10:58:14;21.75;;;10.00;;
65189;SDS011;51777;53.570;9.984;2022-08-19T11:03:10;22.27;;;11.32;;
65189;SDS011;51777;53.570;9.984;2022-08-19T11:05:36;21.75;;;12.25;;
65189;SDS011;51777;53.570;9.984;2022-08-19T11:08:03;21.42;;;11.02;;
65189;SDS011;51777;53.570;9.984;2022-08-19T11:10:28;25.05;;;10.95;;
65189;SDS011;51777;53.570;9.984;2022-08-19T11:12:57;25.55;;;12.07;;
65189;SDS011;51777;53.570;9.984;2022-08-19T11:15:23;24.17;;;11.93;;
65189;SDS011;51777;53.570;9.984;2022-08-19T11:17:51;25.10;;;12.27;;
65189;SDS011;51777;53.570;9.984;2022-08-19T11:20:17;20.70;;;10.38;;
65189;SDS011;51777;53.570;9.984;2022-08-19T11:22:42;17.48;;;10.30;;
65189;SDS011;51777;53.570;9.984;2022-08-19T11:25:08;21.42;;;11.02;;
65189;SDS011;51777;53.570;9.984;2022-08-19T11:27:39;21.30;;;11.20;;
65189;SDS011;51777;53.570;9.984;2022-08-19T11:30:07;21.27;;;11.20;;
65189;SDS011;51777;53.570;9.984;2022-08-19T11:32:33;23.83;;;10.63;;
65189;SDS011;51777;53.570;9.984;2022-08-19T11:34:59;19.38;;;10.32;;
65189;SDS011;51777;53.570;9.984;2022-08-19T11:37:24;16.60;;;10.27;;
65189;SDS011;51777;53.570;9.984;2022-08-19T11:39:50;19.17;;;10.30;;
65189;SDS011;51777;53.570;9.984;2022-08-19T11:42:15;17.20;;;9.73;;
65189;SDS011;51777;53.570;9.984;2022-08-19T11:45:01;17.23;;;9.52;;
65189;SDS011;51777;53.570;9.984;2022-08-19T11:47:28;17.02;;;8.85;;
65189;SDS011;51777;53.570;9.984;2022-08-19T11:49:55;19.42;;;8.68;;
65189;SDS011;51777;53.570;9.984;2022-08-19T11:52:21;13.95;;;8.23;;
65189;SDS011;51777;53.570;9.984;2022-08-19T12:08:52;12.82;;;8.63;;
65189;SDS011;51777;53.570;9.984;2022-08-19T12:11:18;12.80;;;8.52;;
65189;SDS011;51777;53.570;9.984;2022-08-19T12:13:44;15.48;;;8.68;;
65189;SDS011;51777;53.570;9.984;2022-08-19T12:16:12;12.70;;;9.13;;
65189;SDS011;51777;53.570;9.984;2022-08-19T12:18:47;15.20;;;8.82;;
65189;SDS011;51777;53.570;9.984;2022-08-19T12:21:16;14.07;;;8.48;;
65189;SDS011;51777;53.570;9.984;2022-08-19T12:23:46;18.95;;;9.05;;
65189;SDS011;51777;53.570;9.984;2022-08-19T12:26:13;15.82;;;8.35;;
65189;SDS011;51777;53.570;9.984;2022-08-19T12:28:38;17.50;;;8.23;;
65189;SDS011;51777;53.570;9.984;2022-08-19T12:31:04;16.38;;;7.88;;
65189;SDS011;51777;53.570;9.984;2022-08-19T12:33:30;11.10;;;7.40;;
65189;SDS011;51777;53.570;9.984;2022-08-19T12:36:00;9.63;;;6.18;;
65189;SDS011;51777;53.570;9.984;2022-08-19T12:38:30;9.63;;;6.38;;
65189;SDS011;51777;53.570;9.984;2022-08-19T12:40:57;11.65;;;6.30;;
65189;SDS011;51777;53.570;9.984;2022-08-19T12:43:23;9.40;;;6.35;;
65189;SDS011;51777;53.570;9.984;2022-08-19T12:45:49;10.35;;;6.57;;
65189;SDS011;51777;53.570;9.984;2022-08-19T12:48:14;7.78;;;5.80;;
65189;SDS011;51777;53.570;9.984;2022-08-19T12:50:40;9.68;;;6.50;;
65189;SDS011;51777;53.570;9.984;2022-08-19T12:53:07;7.75;;;5.47;;
65189;SDS011;51777;53.570;9.984;2022-08-19T12:55:32;8.90;;;6.43;;
65189;SDS011;51777;53.570;9.984;2022-08-19T12:57:58;10.23;;;6.40;;
65189;SDS011;51777;53.570;9.984;2022-08-19T13:00:26;8.55;;;6.63;;
65189;SDS011;51777;53.570;9.984;2022-08-19T13:02:52;9.00;;;6.25;;
65189;SDS011;51777;53.570;9.984;2022-08-19T13:05:19;7.88;;;6.15;;
65189;SDS011;51777;53.570;9.984;2022-08-19T13:07:50;11.13;;;6.90;;
65189;SDS011;51777;53.570;9.984;2022-08-19T13:10:18;9.52;;;6.85;;
65189;SDS011;51777;53.570;9.984;2022-08-19T13:12:46;9.68;;;6.18;;
65189;SDS011;51777;53.570;9.984;2022-08-19T13:15:14;13.18;;;6.80;;
65189;SDS011;51777;53.570;9.984;2022-08-19T13:17:45;14.15;;;6.00;;
65189;SDS011;51777;53.570;9.984;2022-08-19T13:20:14;9.43;;;6.25;;
65189;SDS011;51777;53.570;9.984;2022-08-19T13:22:41;8.30;;;6.15;;
65189;SDS011;51777;53.570;9.984;2022-08-19T13:25:07;9.02;;;6.22;;
65189;SDS011;51777;53.570;9.984;2022-08-19T13:27:34;12.38;;;6.35;;
65189;SDS011;51777;53.570;9.984;2022-08-19T13:30:00;9.32;;;6.40;;
65189;SDS011;51777;53.570;9.984;2022-08-19T13:32:45;12.15;;;6.60;;
65189;SDS011;51777;53.570;9.984;2022-08-19T13:35:29;10.65;;;6.40;;
65189;SDS011;51777;53.570;9.984;2022-08-19T13:37:55;9.13;;;6.57;;
65189;SDS011;51777;53.570;9.984;2022-08-19T13:40:21;9.88;;;6.68;;
65189;SDS011;51777;53.570;9.984;2022-08-19T13:42:49;9.30;;;6.32;;
65189;SDS011;51777;53.570;9.984;2022-08-19T13:45:17;10.02;;;7.18;;
65189;SDS011;51777;53.570;9.984;2022-08-19T13:50:28;8.73;;;6.80;;
65189;SDS011;51777;53.570;9.984;2022-08-19T13:52:59;9.73;;;6.93;;
65189;SDS011;51777;53.570;9.984;2022-08-19T13:55:25;11.07;;;7.18;;
65189;SDS011;51777;53.570;9.984;2022-08-19T13:57:52;10.73;;;7.10;;
65189;SDS011;51777;53.570;9.984;2022-08-19T14:00:20;13.55;;;6.25;;
65189;SDS011;51777;53.570;9.984;2022-08-19T14:02:48;8.98;;;7.30;;
65189;SDS011;51777;53.570;9.984;2022-08-19T14:05:16;9.68;;;7.50;;
65189;SDS011;51777;53.570;9.984;2022-08-19T14:07:43;11.27;;;6.95;;
65189;SDS011;51777;53.570;9.984;2022-08-19T14:10:09;16.23;;;7.10;;
65189;SDS011;51777;53.570;9.984;2022-08-19T14:12:36;16.60;;;7.57;;
65189;SDS011;51777;53.570;9.984;2022-08-19T14:15:02;11.50;;;7.30;;
65189;SDS011;51777;53.570;9.984;2022-08-19T14:17:29;9.18;;;7.68;;
65189;SDS011;51777;53.570;9.984;2022-08-19T14:19:58;9.50;;;7.30;;
65189;SDS011;51777;53.570;9.984;2022-08-19T14:22:30;12.50;;;7.72;;
65189;SDS011;51777;53.570;9.984;2022-08-19T14:24:56;10.25;;;7.65;;
65189;SDS011;51777;53.570;9.984;2022-08-19T14:27:36;11.50;;;7.88;;
65189;SDS011;51777;53.570;9.984;2022-08-19T14:30:04;11.98;;;7.65;;
65189;SDS011;51777;53.570;9.984;2022-08-19T14:32:31;9.88;;;7.40;;
65189;SDS011;51777;53.570;9.984;2022-08-19T14:34:57;8.82;;;7.55;;
65189;SDS011;51777;53.570;9.984;2022-08-19T14:37:23;14.88;;;7.78;;
65189;SDS011;51777;53.570;9.984;2022-08-19T14:39:49;9.77;;;7.35;;
65189;SDS011;51777;53.570;9.984;2022-08-19T14:42:14;11.88;;;8.10;;
65189;SDS011;51777;53.570;9.984;2022-08-19T14:44:40;9.48;;;7.43;;
65189;SDS011;51777;53.570;9.984;2022-08-19T14:47:06;9.27;;;7.53;;
65189;SDS011;51777;53.570;9.984;2022-08-19T14:49:32;11.45;;;7.40;;
65189;SDS011;51777;53.570;9.984;2022-08-19T14:51:58;9.32;;;6.85;;
65189;SDS011;51777;53.570;9.984;2022-08-19T14:54:23;15.63;;;7.28;;
65189;SDS011;51777;53.570;9.984;2022-08-19T14:56:49;9.60;;;7.22;;
65189;SDS011;51777;53.570;9.984;2022-08-19T14:59:15;12.00;;;7.88;;
65189;SDS011;51777;53.570;9.984;2022-08-19T15:01:40;14.20;;;7.13;;
65189;SDS011;51777;53.570;9.984;2022-08-19T15:04:06;12.80;;;7.70;;